Estación de La capilla

Ultimos registro cada 15 minutos 73
Estación Fecha / Hora Temperatura Humedad Lluvia Velocidad Dirección Radiación Presion
73 La capilla 03-09-2026 18:15 11,3 69 0 1,3 360 7 1100,6
72 La capilla 03-09-2026 18:00 11,7 67 0 1,3 348 12 1100,6
71 La capilla 03-09-2026 17:45 12,2 64 0 1,3 360 23 1100,6
70 La capilla 03-09-2026 17:30 12,5 62 0 1,8 360 42 1100,5
69 La capilla 03-09-2026 17:15 12,6 64 0 3,6 360 58 1100,5
68 La capilla 03-09-2026 17:00 12,8 65 0 2,2 340 40 1100,4
67 La capilla 03-09-2026 16:45 13,2 65 0 2,2 5 281 1100,3
66 La capilla 03-09-2026 16:30 13,3 65 0 1,3 360 37 1100,3
65 La capilla 03-09-2026 16:15 13,3 64 0 3,6 343 165 1100,3
64 La capilla 03-09-2026 16:00 13,2 66 0 4 11 121 1100,3
63 La capilla 03-09-2026 15:45 13,3 67 0 1,3 336 91 1100,4
62 La capilla 03-09-2026 15:30 13,5 67 0 1,3 325 599 1100,4
61 La capilla 03-09-2026 15:15 13,5 70 0 1,3 314 598 1100,4
60 La capilla 03-09-2026 15:00 13,6 70 0 5,4 360 302 1100,6
59 La capilla 03-09-2026 14:45 13,3 71 0 0,9 355 508 1100,6
58 La capilla 03-09-2026 14:30 13,1 70 0 1,8 321 619 1100,6
57 La capilla 03-09-2026 14:15 12,9 72 0 2,2 348 645 1100,6
56 La capilla 03-09-2026 14:00 12,8 75 0 1,8 355 712 1100,6
55 La capilla 03-09-2026 13:45 12,5 73 0 2,2 355 759 1100,6
54 La capilla 03-09-2026 13:30 12,5 72 0 1,8 316 809 1100,6
53 La capilla 03-09-2026 13:15 12,8 72 0 2,2 360 192 1100,6
52 La capilla 03-09-2026 13:00 12,3 75 0 1,8 355 744 1100,6
51 La capilla 03-09-2026 12:45 12 78 0 1,3 5 853 1100,6
50 La capilla 03-09-2026 12:30 11,4 78 0 3,1 282 682 1100,6
49 La capilla 03-09-2026 12:15 11,7 79 0 2,7 360 397 1100,6
48 La capilla 03-09-2026 11:45 10,9 81 0 1,3 306 874 1100,6
47 La capilla 03-09-2026 11:30 10,7 83 0 4 360 127 1100,6
46 La capilla 03-09-2026 11:15 10,3 85 0 2,2 360 250 1100,6
45 La capilla 03-09-2026 11:00 9,8 84 0 2,7 335 109 1100,6
44 La capilla 03-09-2026 10:45 9,6 85 0 2,7 360 93 1100,6
43 La capilla 03-09-2026 10:30 9,4 85 0 2,2 360 86 1100,6
42 La capilla 03-09-2026 10:15 9,7 86 0 1,3 360 174 1100,6
41 La capilla 03-09-2026 10:00 9,4 88 0 2,2 346 144 1100,6
40 La capilla 03-09-2026 09:45 9,3 91 0 1,8 360 176 1100,6
39 La capilla 03-09-2026 09:30 8,8 94 0 2,2 9 195 1100,6
38 La capilla 03-09-2026 09:15 7,9 97 0 2,2 360 142 1100,6
37 La capilla 03-09-2026 09:00 7,5 98 0 1,3 360 137 1100,6
36 La capilla 03-09-2026 08:45 7 98 0 1,3 360 104 1100,6
35 La capilla 03-09-2026 08:30 6,3 99 0 0 360 160 1100,6
34 La capilla 03-09-2026 08:15 5,1 99 0 0 129 65 1100,6
33 La capilla 03-09-2026 08:00 4,5 98 0 0 360 33 1100,6
32 La capilla 03-09-2026 07:45 4,4 98 0 0 360 26 1100,6
31 La capilla 03-09-2026 07:30 4 98 0 0 360 32 1100,4
30 La capilla 03-09-2026 07:15 3,7 97 0 0 360 16 1100,2
29 La capilla 03-09-2026 07:00 3,8 97 0 0 360 0 1100
28 La capilla 03-09-2026 06:45 3,9 96 0 0 360 0 1099,7
27 La capilla 03-09-2026 06:30 4,2 96 0 0 360 0 1099,6
26 La capilla 03-09-2026 06:15 4,4 96 0 0,4 360 0 1099,6
25 La capilla 03-09-2026 06:00 5,1 95 0 0 360 0 1099,3
24 La capilla 03-09-2026 05:45 5,6 96 0 0 360 0 1099,4
23 La capilla 03-09-2026 05:30 5,9 96 0 0 360 0 1099,3
22 La capilla 03-09-2026 05:15 6,2 96 0 0 360 0 1099,2
21 La capilla 03-09-2026 05:00 6,4 96 0 0 128 0 1099,1
20 La capilla 03-09-2026 04:45 6,6 96 0 0 128 0 1098,9
19 La capilla 03-09-2026 04:30 6,5 96 0 0 128 0 1098,7
18 La capilla 03-09-2026 04:15 6,6 96 0 0 128 0 1098,5
17 La capilla 03-09-2026 04:00 6,6 96 0 0 128 0 1098,5
16 La capilla 03-09-2026 03:45 6,6 96 0 0 128 0 1098,3
15 La capilla 03-09-2026 03:30 6,7 95 0 0 128 0 1098,3
14 La capilla 03-09-2026 03:15 6,9 96 0 0 128 0 1098,3
13 La capilla 03-09-2026 03:00 6,9 96 0 0 128 0 1098,1
12 La capilla 03-09-2026 02:45 6,9 96 0 0 128 0 1098,2
11 La capilla 03-09-2026 02:30 6,8 95 0 0 128 0 1098,2
10 La capilla 03-09-2026 02:15 6,8 95 0 0 128 0 1098,1
9 La capilla 03-09-2026 02:00 6,9 95 0 0 128 0 1098
8 La capilla 03-09-2026 01:45 6,9 95 0 0 128 0 1097,9
7 La capilla 03-09-2026 01:30 6,8 94 0 0 128 0 1097,8
6 La capilla 03-09-2026 01:15 6,9 93 0 0 128 0 1097,7
5 La capilla 03-09-2026 01:00 7,1 93 0 0 128 0 1097,9
4 La capilla 03-09-2026 00:45 7,1 93 0 0 128 0 1097,7
3 La capilla 03-09-2026 00:30 7,1 93 0 0 128 0 1097,4
2 La capilla 03-09-2026 00:15 7,2 92 0 0 128 0 1097,2
1 La capilla 03-09-2026 00:00 7,3 92 0 0 128 0 1097,1